SWR401 EDDN-EDDF
Flight info
| Callsign | SWR401 |
|---|---|
| Flight time | 0h 26m |
| Altitude | 16000 |
| Route | SUKAD1G SUKAD DCT PIWAW T159 SPESA SPESA4B |
| Aircraft | B77W/H-SDE1E2E3FGHIJ2J3J4J5M1RWXY/LB1D1 |
Departure
| Time | 2026-05-05 15:36 |
|---|---|
| Airport | Nuremberg Airport (EDDN) |
Arrival
| Time | 2026-05-05 16:02 |
|---|---|
| Airport | Frankfurt Main Airport (EDDF) |
| Time | Latitude | Longitude | Altitude | Speed | Heading |
|---|---|---|---|---|---|
| 2026-05-05 15:09 | 49.49555 | 11.08574 | 1048 ft | 0 kts | 189° |
| 2026-05-05 15:09 | 49.49545 | 11.08571 | 1048 ft | 0 kts | 189° |
| 2026-05-05 15:10 | 49.49543 | 11.08578 | 1048 ft | 0 kts | 189° |
| 2026-05-05 15:11 | 49.49538 | 11.08569 | 1048 ft | 0 kts | 9° |
| 2026-05-05 15:11 | 49.49543 | 11.08570 | 1048 ft | 0 kts | 9° |
| 2026-05-05 15:29 | 49.49552 | 11.08573 | 1021 ft | 6 kts | 8° |
| 2026-05-05 15:30 | 49.49570 | 11.08577 | 1031 ft | 2 kts | 11° |
| 2026-05-05 15:30 | 49.49582 | 11.08588 | 1049 ft | 2 kts | 40° |
| 2026-05-05 15:30 | 49.49586 | 11.08611 | 1050 ft | 3 kts | 74° |
| 2026-05-05 15:30 | 49.49590 | 11.08647 | 1050 ft | 4 kts | 86° |
| 2026-05-05 15:31 | 49.49589 | 11.08696 | 1051 ft | 5 kts | 96° |
| 2026-05-05 15:31 | 49.49585 | 11.08748 | 1052 ft | 5 kts | 97° |
| 2026-05-05 15:31 | 49.49582 | 11.08778 | 1052 ft | 6 kts | 97° |
| 2026-05-05 15:31 | 49.49575 | 11.08847 | 1053 ft | 9 kts | 99° |
| 2026-05-05 15:32 | 49.49566 | 11.08939 | 1054 ft | 9 kts | 98° |
| 2026-05-05 15:32 | 49.49557 | 11.09031 | 1054 ft | 9 kts | 99° |
| 2026-05-05 15:32 | 49.49550 | 11.09123 | 1054 ft | 9 kts | 95° |
| 2026-05-05 15:32 | 49.49537 | 11.09234 | 1056 ft | 11 kts | 98° |
| 2026-05-05 15:33 | 49.49537 | 11.09239 | 1056 ft | 0 kts | 98° |
| 2026-05-05 15:33 | 49.49532 | 11.09292 | 1057 ft | 0 kts | 94° |
| 2026-05-05 15:34 | 49.49557 | 11.09407 | 1059 ft | 19 kts | 57° |
| 2026-05-05 15:34 | 49.49636 | 11.09554 | 1063 ft | 15 kts | 27° |
| 2026-05-05 15:34 | 49.49708 | 11.09475 | 1063 ft | 15 kts | 279° |
| 2026-05-05 15:34 | 49.49715 | 11.09387 | 1062 ft | 0 kts | 277° |
| 2026-05-05 15:35 | 49.49732 | 11.09203 | 1061 ft | 66 kts | 279° |
| 2026-05-05 15:36 | 49.49857 | 11.07877 | 1108 ft | 177 kts | 272° |
| 2026-05-05 15:36 | 49.50055 | 11.05812 | 2374 ft | 197 kts | 276° |
| 2026-05-05 15:36 | 49.50257 | 11.03758 | 4448 ft | 194 kts | 277° |
| 2026-05-05 15:36 | 49.50468 | 11.01649 | 6061 ft | 222 kts | 276° |
| 2026-05-05 15:37 | 49.50726 | 10.98971 | 6698 ft | 283 kts | 276° |
| 2026-05-05 15:37 | 49.51017 | 10.95999 | 7056 ft | 277 kts | 276° |
| 2026-05-05 15:37 | 49.51306 | 10.93066 | 6906 ft | 274 kts | 276° |
| 2026-05-05 15:37 | 49.51581 | 10.90271 | 6998 ft | 258 kts | 276° |
| 2026-05-05 15:38 | 49.51839 | 10.87609 | 7438 ft | 251 kts | 276° |
| 2026-05-05 15:38 | 49.52097 | 10.84908 | 8136 ft | 259 kts | 275° |
| 2026-05-05 15:38 | 49.52364 | 10.82121 | 8855 ft | 266 kts | 275° |
| 2026-05-05 15:38 | 49.52637 | 10.79257 | 9590 ft | 274 kts | 275° |
| 2026-05-05 15:39 | 49.52918 | 10.76318 | 10247 ft | 280 kts | 275° |
| 2026-05-05 15:39 | 49.53202 | 10.73327 | 10899 ft | 284 kts | 275° |
| 2026-05-05 15:39 | 49.53492 | 10.70288 | 11542 ft | 291 kts | 276° |
| 2026-05-05 15:39 | 49.53790 | 10.67146 | 12070 ft | 301 kts | 276° |
| 2026-05-05 15:40 | 49.54093 | 10.63936 | 12604 ft | 310 kts | 276° |
| 2026-05-05 15:40 | 49.54409 | 10.60585 | 13156 ft | 319 kts | 276° |
| 2026-05-05 15:40 | 49.54730 | 10.57156 | 13695 ft | 327 kts | 276° |
| 2026-05-05 15:40 | 49.55132 | 10.53684 | 14156 ft | 333 kts | 285° |
| 2026-05-05 15:41 | 49.56215 | 10.50519 | 14633 ft | 338 kts | 303° |
| 2026-05-05 15:41 | 49.57611 | 10.47554 | 15162 ft | 343 kts | 304° |
| 2026-05-05 15:41 | 49.59034 | 10.44567 | 15660 ft | 349 kts | 304° |
| 2026-05-05 15:41 | 49.60497 | 10.41482 | 15806 ft | 366 kts | 304° |
| 2026-05-05 15:42 | 49.62001 | 10.38288 | 15808 ft | 376 kts | 304° |
| 2026-05-05 15:42 | 49.63534 | 10.35016 | 15807 ft | 377 kts | 304° |
| 2026-05-05 15:42 | 49.65070 | 10.31721 | 15810 ft | 377 kts | 303° |
| 2026-05-05 15:42 | 49.66594 | 10.28436 | 15806 ft | 376 kts | 303° |
| 2026-05-05 15:43 | 49.68109 | 10.25145 | 15795 ft | 376 kts | 303° |
| 2026-05-05 15:43 | 49.69628 | 10.21850 | 15798 ft | 375 kts | 303° |
| 2026-05-05 15:43 | 49.71140 | 10.18567 | 15801 ft | 375 kts | 303° |
| 2026-05-05 15:43 | 49.72649 | 10.15283 | 15798 ft | 375 kts | 303° |
| 2026-05-05 15:44 | 49.74163 | 10.11988 | 15613 ft | 379 kts | 303° |
| 2026-05-05 15:44 | 49.75675 | 10.08692 | 15140 ft | 381 kts | 303° |
| 2026-05-05 15:44 | 49.77207 | 10.05359 | 14703 ft | 378 kts | 303° |
| 2026-05-05 15:44 | 49.78728 | 10.02050 | 14272 ft | 376 kts | 303° |
| 2026-05-05 15:45 | 49.80243 | 9.98744 | 13844 ft | 374 kts | 303° |
| 2026-05-05 15:45 | 49.81745 | 9.95455 | 13349 ft | 369 kts | 303° |
| 2026-05-05 15:45 | 49.83196 | 9.92275 | 12818 ft | 355 kts | 303° |
| 2026-05-05 15:45 | 49.84683 | 9.89284 | 12297 ft | 349 kts | 310° |
| 2026-05-05 15:46 | 49.86352 | 9.86537 | 11831 ft | 352 kts | 313° |
| 2026-05-05 15:46 | 49.88064 | 9.83857 | 11364 ft | 354 kts | 314° |
| 2026-05-05 15:46 | 49.89797 | 9.81159 | 10909 ft | 352 kts | 314° |
| 2026-05-05 15:46 | 49.91521 | 9.78482 | 10418 ft | 348 kts | 314° |
| 2026-05-05 15:47 | 49.93201 | 9.75878 | 9951 ft | 336 kts | 314° |
| 2026-05-05 15:47 | 49.94284 | 9.74204 | 9638 ft | 324 kts | 314° |
| 2026-05-05 15:47 | 49.96339 | 9.71029 | 8918 ft | 301 kts | 314° |
| 2026-05-05 15:47 | 49.97817 | 9.68755 | 8438 ft | 298 kts | 314° |
| 2026-05-05 15:48 | 49.99289 | 9.66486 | 8054 ft | 298 kts | 314° |
| 2026-05-05 15:48 | 50.00751 | 9.64237 | 7809 ft | 291 kts | 314° |
| 2026-05-05 15:48 | 50.02166 | 9.62058 | 7820 ft | 292 kts | 314° |
| 2026-05-05 15:48 | 50.03611 | 9.59828 | 7824 ft | 292 kts | 314° |
| 2026-05-05 15:49 | 50.05046 | 9.57615 | 7813 ft | 288 kts | 314° |
| 2026-05-05 15:49 | 50.06448 | 9.55446 | 7805 ft | 279 kts | 314° |
| 2026-05-05 15:49 | 50.07807 | 9.53353 | 7643 ft | 269 kts | 314° |
| 2026-05-05 15:49 | 50.09124 | 9.51328 | 7137 ft | 265 kts | 314° |
| 2026-05-05 15:50 | 50.10424 | 9.49331 | 6647 ft | 260 kts | 314° |
| 2026-05-05 15:50 | 50.11699 | 9.47371 | 6143 ft | 255 kts | 314° |
| 2026-05-05 15:50 | 50.12946 | 9.45460 | 5624 ft | 248 kts | 314° |
| 2026-05-05 15:50 | 50.14162 | 9.43602 | 5126 ft | 241 kts | 314° |
| 2026-05-05 15:51 | 50.15346 | 9.41792 | 4872 ft | 241 kts | 314° |
| 2026-05-05 15:51 | 50.16547 | 9.39953 | 4838 ft | 246 kts | 314° |
| 2026-05-05 15:51 | 50.17753 | 9.38108 | 4798 ft | 238 kts | 314° |
| 2026-05-05 15:51 | 50.18923 | 9.36325 | 4816 ft | 235 kts | 314° |
| 2026-05-05 15:52 | 50.20106 | 9.34523 | 4845 ft | 239 kts | 314° |
| 2026-05-05 15:52 | 50.21302 | 9.32701 | 4840 ft | 242 kts | 314° |
| 2026-05-05 15:52 | 50.22505 | 9.30874 | 4802 ft | 240 kts | 314° |
| 2026-05-05 15:52 | 50.23601 | 9.28966 | 4818 ft | 233 kts | 297° |
| 2026-05-05 15:53 | 50.23983 | 9.26554 | 4885 ft | 230 kts | 265° |
| 2026-05-05 15:53 | 50.23491 | 9.24201 | 4935 ft | 230 kts | 239° |
| 2026-05-05 15:53 | 50.22620 | 9.22115 | 4938 ft | 233 kts | 234° |
| 2026-05-05 15:53 | 50.21690 | 9.20054 | 4965 ft | 231 kts | 234° |
| 2026-05-05 15:54 | 50.20756 | 9.17997 | 4967 ft | 230 kts | 234° |
| 2026-05-05 15:54 | 50.19865 | 9.16046 | 4926 ft | 210 kts | 234° |
| 2026-05-05 15:54 | 50.19201 | 9.14174 | 4935 ft | 188 kts | 244° |
| 2026-05-05 15:54 | 50.18692 | 9.12304 | 4940 ft | 187 kts | 246° |
| 2026-05-05 15:55 | 50.18209 | 9.10410 | 4973 ft | 187 kts | 247° |
| 2026-05-05 15:55 | 50.17742 | 9.08514 | 4952 ft | 188 kts | 247° |
| 2026-05-05 15:55 | 50.17342 | 9.06852 | 4963 ft | 189 kts | 248° |
| 2026-05-05 15:55 | 50.16877 | 9.04904 | 4945 ft | 190 kts | 248° |
| 2026-05-05 15:56 | 50.16417 | 9.02975 | 4937 ft | 189 kts | 248° |
| 2026-05-05 15:56 | 50.15961 | 9.01067 | 4945 ft | 187 kts | 248° |
| 2026-05-05 15:56 | 50.15318 | 8.98366 | 4951 ft | 186 kts | 248° |
| 2026-05-05 15:56 | 50.13547 | 8.90940 | 4951 ft | 184 kts | 248° |
| 2026-05-05 15:57 | 50.12079 | 8.84787 | 4904 ft | 187 kts | 248° |
| 2026-05-05 15:57 | 50.11620 | 8.82855 | 4597 ft | 191 kts | 248° |
| 2026-05-05 15:57 | 50.11168 | 8.80957 | 4305 ft | 181 kts | 248° |
| 2026-05-05 15:57 | 50.10731 | 8.79118 | 4045 ft | 182 kts | 248° |
| 2026-05-05 15:58 | 50.10287 | 8.77263 | 3797 ft | 183 kts | 248° |
| 2026-05-05 15:58 | 50.09842 | 8.75407 | 3555 ft | 183 kts | 248° |
| 2026-05-05 15:58 | 50.09069 | 8.72145 | 3087 ft | 180 kts | 249° |
| 2026-05-05 15:58 | 50.08624 | 8.70295 | 2829 ft | 181 kts | 248° |
| 2026-05-05 15:59 | 50.08198 | 8.68515 | 2569 ft | 175 kts | 248° |
| 2026-05-05 15:59 | 50.07773 | 8.66736 | 2322 ft | 176 kts | 248° |
| 2026-05-05 15:59 | 50.07354 | 8.64979 | 2061 ft | 167 kts | 248° |
| 2026-05-05 15:59 | 50.06978 | 8.63389 | 1831 ft | 146 kts | 248° |
| 2026-05-05 16:00 | 50.06639 | 8.61969 | 1673 ft | 137 kts | 244° |
| 2026-05-05 16:00 | 50.06301 | 8.60609 | 1402 ft | 133 kts | 251° |
| 2026-05-05 16:00 | 50.06005 | 8.59282 | 1251 ft | 133 kts | 242° |
| 2026-05-05 16:00 | 50.05688 | 8.57938 | 1157 ft | 137 kts | 254° |
| 2026-05-05 16:01 | 50.05358 | 8.56523 | 863 ft | 140 kts | 246° |
| 2026-05-05 16:01 | 50.04997 | 8.55154 | 581 ft | 134 kts | 251° |
| 2026-05-05 16:01 | 50.04696 | 8.53799 | 438 ft | 133 kts | 247° |
| 2026-05-05 16:01 | 50.04369 | 8.52451 | 363 ft | 125 kts | 244° |
| 2026-05-05 16:02 | 50.04123 | 8.51457 | 362 ft | 76 kts | 250° |
| 2026-05-05 16:02 | 50.03993 | 8.50913 | 361 ft | 31 kts | 249° |
| 2026-05-05 16:02 | 50.03919 | 8.50626 | 361 ft | 28 kts | 244° |
| 2026-05-05 16:02 | 50.03822 | 8.50365 | 363 ft | 28 kts | 225° |
| 2026-05-05 16:03 | 50.03678 | 8.50191 | 362 ft | 20 kts | 199° |
| 2026-05-05 16:03 | 50.03669 | 8.50189 | 361 ft | 0 kts | 185° |
| 2026-05-05 16:03 | 50.03659 | 8.50191 | 358 ft | 7 kts | 170° |
| 2026-05-05 16:03 | 50.03636 | 8.50309 | 364 ft | 14 kts | 77° |
| 2026-05-05 16:04 | 50.03666 | 8.50449 | 362 ft | 14 kts | 70° |
| 2026-05-05 16:04 | 50.03700 | 8.50587 | 356 ft | 14 kts | 68° |
| 2026-05-05 16:04 | 50.03733 | 8.50726 | 359 ft | 14 kts | 69° |
| 2026-05-05 16:04 | 50.03768 | 8.50865 | 361 ft | 14 kts | 69° |
| 2026-05-05 16:05 | 50.03830 | 8.51132 | 358 ft | 31 kts | 71° |
| 2026-05-05 16:05 | 50.03909 | 8.51441 | 362 ft | 30 kts | 70° |
| 2026-05-05 16:05 | 50.03977 | 8.51748 | 358 ft | 30 kts | 70° |
| 2026-05-05 16:05 | 50.04050 | 8.52052 | 358 ft | 30 kts | 70° |
| 2026-05-05 16:06 | 50.04123 | 8.52357 | 361 ft | 30 kts | 70° |
| 2026-05-05 16:06 | 50.04198 | 8.52659 | 362 ft | 30 kts | 70° |
| 2026-05-05 16:06 | 50.04269 | 8.52963 | 362 ft | 30 kts | 65° |
| 2026-05-05 16:06 | 50.04343 | 8.53267 | 362 ft | 30 kts | 69° |
| 2026-05-05 16:07 | 50.04399 | 8.53579 | 363 ft | 30 kts | 83° |
| 2026-05-05 16:07 | 50.04419 | 8.53902 | 353 ft | 30 kts | 84° |
| 2026-05-05 16:07 | 50.04441 | 8.54220 | 361 ft | 30 kts | 84° |
| 2026-05-05 16:07 | 50.04445 | 8.54523 | 360 ft | 28 kts | 106° |
| 2026-05-05 16:08 | 50.04330 | 8.54754 | 364 ft | 28 kts | 148° |
| 2026-05-05 16:08 | 50.04264 | 8.54800 | 358 ft | 3 kts | 160° |
| 2026-05-05 16:08 | 50.04244 | 8.54811 | 357 ft | 3 kts | 160° |
| 2026-05-05 16:08 | 50.04228 | 8.54820 | 359 ft | 4 kts | 160° |
| 2026-05-05 16:09 | 50.04199 | 8.54837 | 361 ft | 5 kts | 160° |
| 2026-05-05 16:09 | 50.04154 | 8.54862 | 362 ft | 6 kts | 160° |
| 2026-05-05 16:09 | 50.04114 | 8.54884 | 360 ft | 6 kts | 160° |
| 2026-05-05 16:09 | 50.04098 | 8.54893 | 356 ft | 0 kts | 160° |
| 2026-05-05 16:10 | 50.04091 | 8.54897 | 359 ft | 9 kts | 160° |
| 2026-05-05 16:10 | 50.04027 | 8.54950 | 363 ft | 8 kts | 120° |
| 2026-05-05 16:10 | 50.04027 | 8.55043 | 360 ft | 9 kts | 78° |
| 2026-05-05 16:11 | 50.04047 | 8.55139 | 358 ft | 10 kts | 71° |
| 2026-05-05 16:11 | 50.04055 | 8.55174 | 360 ft | 0 kts | 69° |
| 2026-05-05 16:16 | 50.04064 | 8.55207 | 358 ft | 12 kts | 68° |
| 2026-05-05 16:17 | 50.04128 | 8.55470 | 357 ft | 13 kts | 72° |
| 2026-05-05 16:17 | 50.04161 | 8.55605 | 364 ft | 13 kts | 70° |
| 2026-05-05 16:18 | 50.04217 | 8.55850 | 362 ft | 13 kts | 71° |
| 2026-05-05 16:18 | 50.04247 | 8.55989 | 360 ft | 14 kts | 70° |
| 2026-05-05 16:18 | 50.04315 | 8.56260 | 359 ft | 14 kts | 69° |
| 2026-05-05 16:19 | 50.04349 | 8.56397 | 358 ft | 14 kts | 69° |
| 2026-05-05 16:19 | 50.04382 | 8.56534 | 357 ft | 14 kts | 71° |
| 2026-05-05 16:19 | 50.04451 | 8.56805 | 363 ft | 10 kts | 62° |
| 2026-05-05 16:20 | 50.04510 | 8.56860 | 361 ft | 1 kts | 335° |
| 2026-05-05 16:20 | 50.04522 | 8.56818 | 358 ft | 3 kts | 293° |
| 2026-05-05 16:21 | 50.04541 | 8.56752 | 362 ft | 0 kts | 294° |
| 2026-05-05 16:22 | 50.04544 | 8.56740 | 361 ft | 0 kts | 295° |